createdAt,value
2022-11-23T00:08:53.320Z,100
2022-11-23T00:23:22.685Z,100
2022-11-23T00:37:52.743Z,100
2022-11-23T00:52:22.657Z,100
2022-11-23T01:06:52.270Z,100
2022-11-23T01:21:22.266Z,100
2022-11-23T01:35:52.195Z,100
2022-11-23T01:50:21.091Z,100
2022-11-23T02:04:50.904Z,100
2022-11-23T02:19:20.231Z,100
2022-11-23T02:33:49.118Z,100
2022-11-23T02:48:19.740Z,100
2022-11-23T03:02:49.949Z,100
2022-11-23T03:17:19.577Z,100
2022-11-23T03:31:49.232Z,100
2022-11-23T03:46:19.162Z,100
2022-11-23T04:00:49.207Z,100
2022-11-23T04:15:18.711Z,100
2022-11-23T04:30:02.041Z,100
2022-11-23T04:44:23.658Z,100
2022-11-23T04:58:53.818Z,100
2022-11-23T05:13:22.673Z,100
2022-11-23T05:27:52.065Z,100
2022-11-23T05:42:21.722Z,100
2022-11-23T05:56:51.071Z,100
2022-11-23T06:11:21.126Z,100
2022-11-23T06:25:50.989Z,100
2022-11-23T06:40:20.808Z,100
2022-11-23T06:54:49.480Z,100
2022-11-23T07:09:19.770Z,100
2022-11-23T07:23:49.997Z,100
2022-11-23T07:38:19.442Z,100
2022-11-23T07:52:49.329Z,100
2022-11-23T08:07:19.393Z,100
2022-11-23T08:21:49.170Z,100
2022-11-23T08:36:19.112Z,100
2022-11-23T08:50:51.208Z,100
2022-11-23T09:05:20.023Z,97.1
2022-11-23T09:19:56.424Z,90.3
2022-11-23T09:34:22.713Z,90
2022-11-23T09:48:50.089Z,89.9
2022-11-23T10:03:19.749Z,89.4
2022-11-23T10:17:48.542Z,89.2
2022-11-23T10:32:18.723Z,89.1
2022-11-23T10:46:48.206Z,84.4
2022-11-23T11:01:17.639Z,85.8
2022-11-23T11:15:47.959Z,82.9
2022-11-23T11:30:16.134Z,81.4
2022-11-23T11:44:47.209Z,77.7
2022-11-23T11:59:17.854Z,76
2022-11-23T12:13:46.802Z,76.1
2022-11-23T12:28:16.822Z,75.2
2022-11-23T12:42:46.295Z,74.5
2022-11-23T12:57:15.483Z,75.5
2022-11-23T13:11:44.920Z,74.7
2022-11-23T13:26:15.487Z,74.7
2022-11-23T13:40:45.986Z,74.3
2022-11-23T13:55:14.632Z,73.7
2022-11-23T14:09:42.601Z,73.3
2022-11-23T14:24:16.134Z,74.5
2022-11-23T14:38:43.086Z,75.1
2022-11-23T14:53:13.322Z,75.8
2022-11-23T15:07:42.906Z,76.8
2022-11-23T15:22:11.514Z,76.6
2022-11-23T15:36:41.370Z,78.9
2022-11-23T15:51:10.906Z,78.2
2022-11-23T16:05:40.196Z,78.4
2022-11-23T16:20:10.173Z,81.3
2022-11-23T16:34:39.037Z,84
2022-11-23T16:49:08.296Z,92.3
2022-11-23T17:03:37.671Z,95.4
2022-11-23T17:18:06.572Z,100
2022-11-23T17:32:37.264Z,100
2022-11-23T17:47:05.130Z,100
2022-11-23T18:01:34.572Z,100
2022-11-23T18:16:02.163Z,100
2022-11-23T18:30:32.925Z,100
2022-11-23T18:45:01.182Z,100
2022-11-23T19:00:02.455Z,100
2022-11-23T19:14:17.200Z,100
2022-11-23T19:28:47.321Z,100
2022-11-23T19:43:16.181Z,100
2022-11-23T19:57:46.504Z,100
2022-11-23T20:12:13.334Z,100
2022-11-23T20:26:43.137Z,100
2022-11-23T20:41:17.809Z,100
2022-11-23T20:55:45.806Z,100
2022-11-23T21:10:15.594Z,100
2022-11-23T21:24:46.347Z,100
2022-11-23T21:39:15.107Z,100
2022-11-23T21:53:44.818Z,100
2022-11-23T22:08:29.630Z,100
2022-11-23T22:22:50.345Z,100
2022-11-23T22:37:21.088Z,100
2022-11-23T22:51:50.809Z,100
2022-11-23T23:06:18.954Z,100
2022-11-23T23:20:48.786Z,100
2022-11-23T23:35:19.338Z,100
2022-11-23T23:49:48.658Z,100
